sensor_id;sensor_type;location;lat;lon;timestamp;P1;durP1;ratioP1;P2;durP2;ratioP2
60492;SDS011;46341;51.290;-2.474;2022-11-15T00:00:48;11.23;;;1.50;;
60492;SDS011;46341;51.290;-2.474;2022-11-15T00:03:18;9.70;;;1.40;;
60492;SDS011;46341;51.290;-2.474;2022-11-15T00:05:44;10.07;;;1.20;;
60492;SDS011;46341;51.290;-2.474;2022-11-15T00:08:11;5.90;;;1.30;;
60492;SDS011;46341;51.290;-2.474;2022-11-15T00:10:37;8.25;;;1.40;;
60492;SDS011;46341;51.290;-2.474;2022-11-15T00:13:05;8.52;;;1.25;;
60492;SDS011;46341;51.290;-2.474;2022-11-15T00:15:33;8.25;;;1.20;;
60492;SDS011;46341;51.290;-2.474;2022-11-15T00:18:00;9.05;;;1.50;;
60492;SDS011;46341;51.290;-2.474;2022-11-15T00:20:26;12.35;;;1.60;;
60492;SDS011;46341;51.290;-2.474;2022-11-15T00:22:52;8.85;;;1.55;;
60492;SDS011;46341;51.290;-2.474;2022-11-15T00:25:19;9.30;;;1.42;;
60492;SDS011;46341;51.290;-2.474;2022-11-15T00:27:45;6.72;;;1.33;;
60492;SDS011;46341;51.290;-2.474;2022-11-15T00:30:12;7.30;;;1.40;;
60492;SDS011;46341;51.290;-2.474;2022-11-15T00:32:38;9.23;;;1.02;;
60492;SDS011;46341;51.290;-2.474;2022-11-15T00:35:05;7.05;;;1.65;;
60492;SDS011;46341;51.290;-2.474;2022-11-15T00:37:31;11.70;;;1.50;;
60492;SDS011;46341;51.290;-2.474;2022-11-15T00:39:57;7.38;;;1.20;;
60492;SDS011;46341;51.290;-2.474;2022-11-15T00:42:24;6.60;;;1.10;;
60492;SDS011;46341;51.290;-2.474;2022-11-15T00:44:50;8.68;;;1.52;;
60492;SDS011;46341;51.290;-2.474;2022-11-15T00:47:16;11.02;;;1.58;;
60492;SDS011;46341;51.290;-2.474;2022-11-15T00:49:43;10.00;;;1.23;;
60492;SDS011;46341;51.290;-2.474;2022-11-15T00:52:09;8.80;;;1.27;;
60492;SDS011;46341;51.290;-2.474;2022-11-15T00:54:35;9.63;;;1.42;;
60492;SDS011;46341;51.290;-2.474;2022-11-15T00:57:02;11.95;;;1.70;;
60492;SDS011;46341;51.290;-2.474;2022-11-15T00:59:28;7.43;;;1.33;;
60492;SDS011;46341;51.290;-2.474;2022-11-15T01:01:55;7.57;;;1.13;;
60492;SDS011;46341;51.290;-2.474;2022-11-15T01:04:21;9.48;;;1.48;;
60492;SDS011;46341;51.290;-2.474;2022-11-15T01:06:47;7.85;;;1.17;;
60492;SDS011;46341;51.290;-2.474;2022-11-15T01:09:14;7.25;;;1.42;;
60492;SDS011;46341;51.290;-2.474;2022-11-15T01:11:40;8.20;;;1.25;;
60492;SDS011;46341;51.290;-2.474;2022-11-15T01:14:07;6.90;;;1.45;;
60492;SDS011;46341;51.290;-2.474;2022-11-15T01:16:33;8.93;;;1.33;;
60492;SDS011;46341;51.290;-2.474;2022-11-15T01:18:59;9.73;;;1.42;;
60492;SDS011;46341;51.290;-2.474;2022-11-15T01:21:26;9.82;;;1.38;;
60492;SDS011;46341;51.290;-2.474;2022-11-15T01:23:53;8.93;;;1.17;;
60492;SDS011;46341;51.290;-2.474;2022-11-15T01:26:20;8.40;;;1.20;;
60492;SDS011;46341;51.290;-2.474;2022-11-15T01:28:46;6.43;;;1.27;;
60492;SDS011;46341;51.290;-2.474;2022-11-15T01:31:14;7.35;;;2.00;;
60492;SDS011;46341;51.290;-2.474;2022-11-15T01:33:41;12.38;;;1.33;;
60492;SDS011;46341;51.290;-2.474;2022-11-15T01:36:09;8.85;;;1.20;;
60492;SDS011;46341;51.290;-2.474;2022-11-15T01:38:36;7.22;;;1.30;;
60492;SDS011;46341;51.290;-2.474;2022-11-15T01:41:02;6.97;;;1.25;;
60492;SDS011;46341;51.290;-2.474;2022-11-15T01:43:33;5.53;;;1.10;;
60492;SDS011;46341;51.290;-2.474;2022-11-15T01:46:02;6.53;;;1.27;;
60492;SDS011;46341;51.290;-2.474;2022-11-15T01:48:31;12.10;;;1.50;;
60492;SDS011;46341;51.290;-2.474;2022-11-15T01:51:02;8.50;;;1.30;;
60492;SDS011;46341;51.290;-2.474;2022-11-15T01:53:30;8.32;;;1.35;;
60492;SDS011;46341;51.290;-2.474;2022-11-15T01:55:58;10.38;;;1.45;;
60492;SDS011;46341;51.290;-2.474;2022-11-15T01:58:25;7.53;;;1.65;;
60492;SDS011;46341;51.290;-2.474;2022-11-15T02:00:51;10.85;;;1.55;;
60492;SDS011;46341;51.290;-2.474;2022-11-15T02:03:18;8.68;;;1.60;;
60492;SDS011;46341;51.290;-2.474;2022-11-15T02:05:45;12.50;;;1.73;;
60492;SDS011;46341;51.290;-2.474;2022-11-15T02:08:11;5.82;;;1.10;;
60492;SDS011;46341;51.290;-2.474;2022-11-15T02:10:46;7.57;;;1.70;;
60492;SDS011;46341;51.290;-2.474;2022-11-15T02:13:13;8.07;;;1.60;;
60492;SDS011;46341;51.290;-2.474;2022-11-15T02:15:43;11.35;;;1.73;;
60492;SDS011;46341;51.290;-2.474;2022-11-15T02:18:34;8.77;;;1.73;;
60492;SDS011;46341;51.290;-2.474;2022-11-15T02:21:06;9.13;;;1.57;;
60492;SDS011;46341;51.290;-2.474;2022-11-15T02:31:55;7.00;;;1.45;;
60492;SDS011;46341;51.290;-2.474;2022-11-15T02:37:29;10.13;;;1.58;;
60492;SDS011;46341;51.290;-2.474;2022-11-15T02:40:02;8.48;;;1.38;;
60492;SDS011;46341;51.290;-2.474;2022-11-15T02:42:33;5.00;;;1.10;;
60492;SDS011;46341;51.290;-2.474;2022-11-15T02:45:30;4.20;;;1.40;;
60492;SDS011;46341;51.290;-2.474;2022-11-15T02:47:57;7.22;;;1.33;;
60492;SDS011;46341;51.290;-2.474;2022-11-15T02:50:26;9.00;;;1.42;;
60492;SDS011;46341;51.290;-2.474;2022-11-15T02:52:53;5.15;;;1.35;;
60492;SDS011;46341;51.290;-2.474;2022-11-15T02:58:03;6.05;;;1.25;;
60492;SDS011;46341;51.290;-2.474;2022-11-15T03:00:44;4.63;;;1.52;;
60492;SDS011;46341;51.290;-2.474;2022-11-15T03:03:17;5.78;;;0.90;;
60492;SDS011;46341;51.290;-2.474;2022-11-15T03:08:38;2.38;;;0.80;;
60492;SDS011;46341;51.290;-2.474;2022-11-15T03:16:23;2.60;;;0.68;;
60492;SDS011;46341;51.290;-2.474;2022-11-15T03:18:56;3.03;;;0.60;;
60492;SDS011;46341;51.290;-2.474;2022-11-15T03:21:23;3.53;;;0.98;;
60492;SDS011;46341;51.290;-2.474;2022-11-15T03:23:50;3.80;;;0.80;;
60492;SDS011;46341;51.290;-2.474;2022-11-15T03:26:18;3.25;;;0.80;;
60492;SDS011;46341;51.290;-2.474;2022-11-15T03:28:47;2.85;;;0.65;;
60492;SDS011;46341;51.290;-2.474;2022-11-15T03:31:16;5.82;;;0.73;;
60492;SDS011;46341;51.290;-2.474;2022-11-15T03:34:03;2.25;;;0.60;;
60492;SDS011;46341;51.290;-2.474;2022-11-15T03:36:31;2.28;;;0.60;;
60492;SDS011;46341;51.290;-2.474;2022-11-15T03:41:27;2.88;;;0.60;;
60492;SDS011;46341;51.290;-2.474;2022-11-15T03:44:07;1.70;;;0.38;;
60492;SDS011;46341;51.290;-2.474;2022-11-15T03:46:39;5.80;;;0.60;;
60492;SDS011;46341;51.290;-2.474;2022-11-15T03:49:07;2.22;;;0.60;;
60492;SDS011;46341;51.290;-2.474;2022-11-15T03:51:35;1.98;;;0.30;;
60492;SDS011;46341;51.290;-2.474;2022-11-15T03:54:03;1.27;;;0.30;;
60492;SDS011;46341;51.290;-2.474;2022-11-15T03:56:29;2.67;;;0.30;;
60492;SDS011;46341;51.290;-2.474;2022-11-15T03:58:55;1.67;;;0.30;;
60492;SDS011;46341;51.290;-2.474;2022-11-15T04:01:22;1.20;;;0.40;;
60492;SDS011;46341;51.290;-2.474;2022-11-15T04:03:48;0.68;;;0.30;;
60492;SDS011;46341;51.290;-2.474;2022-11-15T04:06:15;1.90;;;0.32;;
60492;SDS011;46341;51.290;-2.474;2022-11-15T04:08:41;0.90;;;0.20;;
60492;SDS011;46341;51.290;-2.474;2022-11-15T04:11:07;0.55;;;0.20;;
60492;SDS011;46341;51.290;-2.474;2022-11-15T04:13:34;3.08;;;0.40;;
60492;SDS011;46341;51.290;-2.474;2022-11-15T04:16:00;1.83;;;0.30;;
60492;SDS011;46341;51.290;-2.474;2022-11-15T04:18:26;1.48;;;0.20;;
60492;SDS011;46341;51.290;-2.474;2022-11-15T04:20:53;1.00;;;0.20;;
60492;SDS011;46341;51.290;-2.474;2022-11-15T04:23:38;1.48;;;0.13;;
60492;SDS011;46341;51.290;-2.474;2022-11-15T04:26:23;1.60;;;0.38;;
60492;SDS011;46341;51.290;-2.474;2022-11-15T04:28:49;0.77;;;0.30;;
60492;SDS011;46341;51.290;-2.474;2022-11-15T04:31:34;2.92;;;0.17;;
60492;SDS011;46341;51.290;-2.474;2022-11-15T04:34:00;2.83;;;0.20;;
60492;SDS011;46341;51.290;-2.474;2022-11-15T04:36:27;2.47;;;0.20;;
60492;SDS011;46341;51.290;-2.474;2022-11-15T04:39:12;1.08;;;0.32;;
60492;SDS011;46341;51.290;-2.474;2022-11-15T04:41:38;1.85;;;0.40;;
60492;SDS011;46341;51.290;-2.474;2022-11-15T04:44:04;3.28;;;0.70;;
60492;SDS011;46341;51.290;-2.474;2022-11-15T04:46:31;3.72;;;0.30;;
60492;SDS011;46341;51.290;-2.474;2022-11-15T04:48:57;2.20;;;0.45;;
60492;SDS011;46341;51.290;-2.474;2022-11-15T04:51:24;2.50;;;0.30;;
60492;SDS011;46341;51.290;-2.474;2022-11-15T04:53:51;4.13;;;0.43;;
60492;SDS011;46341;51.290;-2.474;2022-11-15T04:56:18;2.85;;;0.40;;
60492;SDS011;46341;51.290;-2.474;2022-11-15T04:58:44;4.82;;;0.63;;
60492;SDS011;46341;51.290;-2.474;2022-11-15T05:01:12;3.50;;;0.30;;
60492;SDS011;46341;51.290;-2.474;2022-11-15T05:03:41;2.25;;;0.50;;
60492;SDS011;46341;51.290;-2.474;2022-11-15T05:06:26;4.18;;;0.90;;
60492;SDS011;46341;51.290;-2.474;2022-11-15T05:08:53;3.88;;;0.68;;
60492;SDS011;46341;51.290;-2.474;2022-11-15T05:11:19;2.42;;;0.77;;
60492;SDS011;46341;51.290;-2.474;2022-11-15T05:13:46;4.22;;;0.60;;
60492;SDS011;46341;51.290;-2.474;2022-11-15T05:16:13;3.17;;;0.60;;
60492;SDS011;46341;51.290;-2.474;2022-11-15T05:18:39;2.25;;;0.50;;
60492;SDS011;46341;51.290;-2.474;2022-11-15T05:21:07;6.38;;;0.85;;
60492;SDS011;46341;51.290;-2.474;2022-11-15T05:23:34;4.82;;;0.63;;
60492;SDS011;46341;51.290;-2.474;2022-11-15T05:26:01;2.70;;;0.52;;
60492;SDS011;46341;51.290;-2.474;2022-11-15T05:28:34;3.72;;;0.93;;
60492;SDS011;46341;51.290;-2.474;2022-11-15T05:31:04;2.47;;;0.60;;
60492;SDS011;46341;51.290;-2.474;2022-11-15T05:33:32;5.20;;;0.60;;
60492;SDS011;46341;51.290;-2.474;2022-11-15T05:38:25;4.68;;;0.40;;
60492;SDS011;46341;51.290;-2.474;2022-11-15T05:40:52;3.25;;;0.40;;
60492;SDS011;46341;51.290;-2.474;2022-11-15T05:43:18;3.42;;;0.80;;
60492;SDS011;46341;51.290;-2.474;2022-11-15T05:45:45;3.95;;;0.50;;
60492;SDS011;46341;51.290;-2.474;2022-11-15T05:48:11;3.38;;;0.63;;
60492;SDS011;46341;51.290;-2.474;2022-11-15T05:50:38;4.13;;;0.70;;
60492;SDS011;46341;51.290;-2.474;2022-11-15T05:53:06;3.83;;;0.75;;
60492;SDS011;46341;51.290;-2.474;2022-11-15T05:55:33;4.70;;;1.10;;
60492;SDS011;46341;51.290;-2.474;2022-11-15T05:58:00;2.45;;;0.70;;
60492;SDS011;46341;51.290;-2.474;2022-11-15T06:00:27;6.00;;;1.00;;
60492;SDS011;46341;51.290;-2.474;2022-11-15T06:02:54;3.03;;;0.88;;
60492;SDS011;46341;51.290;-2.474;2022-11-15T06:05:20;3.35;;;0.82;;
60492;SDS011;46341;51.290;-2.474;2022-11-15T06:07:47;6.93;;;1.05;;
60492;SDS011;46341;51.290;-2.474;2022-11-15T06:10:13;7.28;;;1.20;;
60492;SDS011;46341;51.290;-2.474;2022-11-15T06:12:39;4.05;;;0.93;;
60492;SDS011;46341;51.290;-2.474;2022-11-15T06:15:06;3.67;;;0.82;;
60492;SDS011;46341;51.290;-2.474;2022-11-15T06:17:32;5.20;;;0.95;;
60492;SDS011;46341;51.290;-2.474;2022-11-15T06:19:59;2.28;;;0.80;;
60492;SDS011;46341;51.290;-2.474;2022-11-15T06:22:25;5.25;;;0.68;;
60492;SDS011;46341;51.290;-2.474;2022-11-15T06:24:51;2.85;;;0.77;;
60492;SDS011;46341;51.290;-2.474;2022-11-15T06:27:18;3.70;;;0.80;;
60492;SDS011;46341;51.290;-2.474;2022-11-15T06:29:44;4.03;;;0.70;;
60492;SDS011;46341;51.290;-2.474;2022-11-15T06:32:10;2.85;;;0.60;;
60492;SDS011;46341;51.290;-2.474;2022-11-15T06:34:37;4.18;;;0.93;;
60492;SDS011;46341;51.290;-2.474;2022-11-15T06:37:03;5.82;;;1.00;;
60492;SDS011;46341;51.290;-2.474;2022-11-15T06:39:30;3.90;;;0.82;;
60492;SDS011;46341;51.290;-2.474;2022-11-15T06:41:56;7.22;;;1.20;;
60492;SDS011;46341;51.290;-2.474;2022-11-15T06:44:22;4.28;;;0.77;;
60492;SDS011;46341;51.290;-2.474;2022-11-15T06:46:49;6.00;;;1.35;;
60492;SDS011;46341;51.290;-2.474;2022-11-15T06:49:15;2.65;;;0.77;;
60492;SDS011;46341;51.290;-2.474;2022-11-15T06:51:42;3.88;;;0.77;;
60492;SDS011;46341;51.290;-2.474;2022-11-15T06:54:09;5.28;;;0.85;;
60492;SDS011;46341;51.290;-2.474;2022-11-15T06:56:35;2.45;;;0.70;;
60492;SDS011;46341;51.290;-2.474;2022-11-15T06:59:01;6.18;;;0.75;;
60492;SDS011;46341;51.290;-2.474;2022-11-15T07:01:28;3.97;;;0.60;;
60492;SDS011;46341;51.290;-2.474;2022-11-15T07:03:55;6.55;;;1.10;;
60492;SDS011;46341;51.290;-2.474;2022-11-15T07:06:21;3.17;;;0.93;;
60492;SDS011;46341;51.290;-2.474;2022-11-15T07:08:47;5.03;;;0.88;;
60492;SDS011;46341;51.290;-2.474;2022-11-15T07:11:14;4.68;;;0.70;;
60492;SDS011;46341;51.290;-2.474;2022-11-15T07:13:40;2.20;;;0.80;;
60492;SDS011;46341;51.290;-2.474;2022-11-15T07:16:08;4.65;;;0.88;;
60492;SDS011;46341;51.290;-2.474;2022-11-15T07:21:04;1.85;;;0.52;;
60492;SDS011;46341;51.290;-2.474;2022-11-15T07:23:31;6.38;;;0.70;;
60492;SDS011;46341;51.290;-2.474;2022-11-15T07:25:58;5.13;;;0.65;;
60492;SDS011;46341;51.290;-2.474;2022-11-15T07:28:25;2.47;;;0.60;;
60492;SDS011;46341;51.290;-2.474;2022-11-15T07:30:53;2.95;;;0.45;;
60492;SDS011;46341;51.290;-2.474;2022-11-15T07:33:20;5.07;;;0.57;;
60492;SDS011;46341;51.290;-2.474;2022-11-15T07:35:46;2.90;;;0.57;;
60492;SDS011;46341;51.290;-2.474;2022-11-15T07:38:16;3.58;;;0.38;;
60492;SDS011;46341;51.290;-2.474;2022-11-15T07:40:45;2.92;;;0.20;;
60492;SDS011;46341;51.290;-2.474;2022-11-15T07:43:12;1.83;;;0.30;;
60492;SDS011;46341;51.290;-2.474;2022-11-15T07:45:42;2.38;;;0.40;;
60492;SDS011;46341;51.290;-2.474;2022-11-15T07:48:09;2.97;;;0.40;;
60492;SDS011;46341;51.290;-2.474;2022-11-15T07:50:35;1.30;;;0.40;;
60492;SDS011;46341;51.290;-2.474;2022-11-15T07:53:01;3.92;;;0.30;;
60492;SDS011;46341;51.290;-2.474;2022-11-15T07:55:28;2.45;;;0.30;;
60492;SDS011;46341;51.290;-2.474;2022-11-15T07:58:05;1.83;;;0.40;;
60492;SDS011;46341;51.290;-2.474;2022-11-15T08:00:32;0.70;;;0.30;;
60492;SDS011;46341;51.290;-2.474;2022-11-15T08:03:05;2.15;;;0.20;;
60492;SDS011;46341;51.290;-2.474;2022-11-15T08:05:32;2.55;;;0.30;;
60492;SDS011;46341;51.290;-2.474;2022-11-15T08:07:59;1.02;;;0.30;;
60492;SDS011;46341;51.290;-2.474;2022-11-15T08:10:26;1.90;;;0.20;;
60492;SDS011;46341;51.290;-2.474;2022-11-15T08:13:02;4.38;;;0.20;;
60492;SDS011;46341;51.290;-2.474;2022-11-15T08:15:29;1.98;;;0.30;;
60492;SDS011;46341;51.290;-2.474;2022-11-15T08:17:56;2.28;;;0.13;;
60492;SDS011;46341;51.290;-2.474;2022-11-15T08:20:23;3.15;;;0.38;;
60492;SDS011;46341;51.290;-2.474;2022-11-15T08:22:50;0.52;;;0.30;;
60492;SDS011;46341;51.290;-2.474;2022-11-15T08:25:16;3.40;;;0.30;;
60492;SDS011;46341;51.290;-2.474;2022-11-15T08:27:43;3.33;;;0.52;;
60492;SDS011;46341;51.290;-2.474;2022-11-15T08:30:09;1.83;;;0.30;;
60492;SDS011;46341;51.290;-2.474;2022-11-15T08:32:37;4.00;;;0.47;;
60492;SDS011;46341;51.290;-2.474;2022-11-15T08:35:03;2.40;;;0.60;;
60492;SDS011;46341;51.290;-2.474;2022-11-15T08:37:30;6.38;;;1.10;;
60492;SDS011;46341;51.290;-2.474;2022-11-15T08:39:56;6.07;;;0.82;;
60492;SDS011;46341;51.290;-2.474;2022-11-15T08:42:22;7.85;;;0.77;;
60492;SDS011;46341;51.290;-2.474;2022-11-15T08:44:49;4.88;;;0.50;;
60492;SDS011;46341;51.290;-2.474;2022-11-15T08:47:15;6.32;;;0.63;;
60492;SDS011;46341;51.290;-2.474;2022-11-15T08:49:41;8.20;;;0.90;;
60492;SDS011;46341;51.290;-2.474;2022-11-15T08:52:08;9.63;;;0.98;;
60492;SDS011;46341;51.290;-2.474;2022-11-15T08:54:34;4.20;;;0.68;;
60492;SDS011;46341;51.290;-2.474;2022-11-15T08:57:00;4.93;;;0.52;;
60492;SDS011;46341;51.290;-2.474;2022-11-15T08:59:27;3.92;;;0.82;;
60492;SDS011;46341;51.290;-2.474;2022-11-15T09:01:53;2.47;;;0.50;;
60492;SDS011;46341;51.290;-2.474;2022-11-15T09:04:20;3.08;;;0.77;;
60492;SDS011;46341;51.290;-2.474;2022-11-15T09:06:46;5.78;;;0.60;;
60492;SDS011;46341;51.290;-2.474;2022-11-15T09:09:13;6.50;;;0.82;;
60492;SDS011;46341;51.290;-2.474;2022-11-15T09:11:39;3.05;;;0.50;;
60492;SDS011;46341;51.290;-2.474;2022-11-15T09:14:05;2.20;;;0.50;;
60492;SDS011;46341;51.290;-2.474;2022-11-15T09:16:32;1.35;;;0.10;;
60492;SDS011;46341;51.290;-2.474;2022-11-15T09:18:58;0.20;;;0.20;;
60492;SDS011;46341;51.290;-2.474;2022-11-15T09:21:24;0.17;;;0.10;;
60492;SDS011;46341;51.290;-2.474;2022-11-15T09:23:52;0.73;;;0.05;;
60492;SDS011;46341;51.290;-2.474;2022-11-15T09:26:18;0.85;;;0.10;;
60492;SDS011;46341;51.290;-2.474;2022-11-15T09:28:45;1.52;;;0.28;;
60492;SDS011;46341;51.290;-2.474;2022-11-15T09:31:11;2.03;;;0.10;;
60492;SDS011;46341;51.290;-2.474;2022-11-15T09:33:37;1.08;;;0.15;;
60492;SDS011;46341;51.290;-2.474;2022-11-15T09:36:05;1.75;;;0.30;;
60492;SDS011;46341;51.290;-2.474;2022-11-15T09:38:32;3.15;;;1.40;;
60492;SDS011;46341;51.290;-2.474;2022-11-15T09:48:59;4.43;;;1.00;;
60492;SDS011;46341;51.290;-2.474;2022-11-15T09:51:33;11.13;;;1.35;;
60492;SDS011;46341;51.290;-2.474;2022-11-15T09:56:46;5.78;;;1.13;;
60492;SDS011;46341;51.290;-2.474;2022-11-15T10:02:02;5.15;;;0.60;;
60492;SDS011;46341;51.290;-2.474;2022-11-15T10:04:31;12.68;;;1.27;;
60492;SDS011;46341;51.290;-2.474;2022-11-15T10:09:33;7.35;;;1.92;;
60492;SDS011;46341;51.290;-2.474;2022-11-15T10:12:01;5.72;;;1.17;;
60492;SDS011;46341;51.290;-2.474;2022-11-15T10:14:28;5.68;;;1.02;;
60492;SDS011;46341;51.290;-2.474;2022-11-15T10:19:28;3.38;;;0.95;;
60492;SDS011;46341;51.290;-2.474;2022-11-15T10:24:43;7.00;;;2.22;;
60492;SDS011;46341;51.290;-2.474;2022-11-15T10:27:11;7.28;;;1.40;;
60492;SDS011;46341;51.290;-2.474;2022-11-15T10:29:42;9.07;;;3.28;;
60492;SDS011;46341;51.290;-2.474;2022-11-15T10:32:10;9.88;;;4.45;;
60492;SDS011;46341;51.290;-2.474;2022-11-15T10:34:37;5.90;;;1.80;;
60492;SDS011;46341;51.290;-2.474;2022-11-15T10:37:03;6.25;;;1.30;;
60492;SDS011;46341;51.290;-2.474;2022-11-15T10:39:30;9.93;;;1.60;;
60492;SDS011;46341;51.290;-2.474;2022-11-15T10:41:56;3.83;;;1.27;;
60492;SDS011;46341;51.290;-2.474;2022-11-15T10:44:27;5.15;;;1.23;;
60492;SDS011;46341;51.290;-2.474;2022-11-15T10:49:21;5.63;;;1.30;;
60492;SDS011;46341;51.290;-2.474;2022-11-15T10:51:49;4.10;;;1.35;;
60492;SDS011;46341;51.290;-2.474;2022-11-15T10:56:55;4.68;;;1.00;;
60492;SDS011;46341;51.290;-2.474;2022-11-15T10:59:29;7.93;;;1.55;;
60492;SDS011;46341;51.290;-2.474;2022-11-15T11:04:50;6.93;;;1.20;;
60492;SDS011;46341;51.290;-2.474;2022-11-15T11:07:24;9.43;;;1.85;;
60492;SDS011;46341;51.290;-2.474;2022-11-15T11:09:58;5.30;;;1.42;;
60492;SDS011;46341;51.290;-2.474;2022-11-15T11:12:28;7.05;;;1.40;;
60492;SDS011;46341;51.290;-2.474;2022-11-15T11:14:56;6.10;;;1.30;;
60492;SDS011;46341;51.290;-2.474;2022-11-15T11:27:47;4.97;;;1.95;;
60492;SDS011;46341;51.290;-2.474;2022-11-15T11:35:57;5.10;;;1.25;;
60492;SDS011;46341;51.290;-2.474;2022-11-15T11:41:07;7.53;;;1.55;;
60492;SDS011;46341;51.290;-2.474;2022-11-15T11:43:40;5.57;;;1.20;;
60492;SDS011;46341;51.290;-2.474;2022-11-15T11:48:40;12.60;;;6.68;;
60492;SDS011;46341;51.290;-2.474;2022-11-15T11:51:13;8.77;;;4.90;;
60492;SDS011;46341;51.290;-2.474;2022-11-15T11:53:52;5.72;;;1.60;;
60492;SDS011;46341;51.290;-2.474;2022-11-15T11:56:29;8.60;;;3.40;;
60492;SDS011;46341;51.290;-2.474;2022-11-15T11:58:59;5.85;;;2.00;;
60492;SDS011;46341;51.290;-2.474;2022-11-15T12:01:28;5.65;;;1.20;;
60492;SDS011;46341;51.290;-2.474;2022-11-15T12:03:59;5.90;;;1.33;;
60492;SDS011;46341;51.290;-2.474;2022-11-15T12:06:30;5.55;;;0.98;;
60492;SDS011;46341;51.290;-2.474;2022-11-15T12:09:00;6.30;;;2.47;;
60492;SDS011;46341;51.290;-2.474;2022-11-15T12:11:35;12.93;;;4.10;;
60492;SDS011;46341;51.290;-2.474;2022-11-15T12:14:03;9.38;;;4.38;;
60492;SDS011;46341;51.290;-2.474;2022-11-15T12:16:32;14.40;;;4.55;;
60492;SDS011;46341;51.290;-2.474;2022-11-15T12:21:43;5.30;;;2.22;;
60492;SDS011;46341;51.290;-2.474;2022-11-15T12:26:54;5.60;;;2.55;;
60492;SDS011;46341;51.290;-2.474;2022-11-15T12:29:31;10.32;;;2.60;;
60492;SDS011;46341;51.290;-2.474;2022-11-15T12:31:58;10.27;;;2.33;;
60492;SDS011;46341;51.290;-2.474;2022-11-15T12:34:40;4.45;;;1.85;;
60492;SDS011;46341;51.290;-2.474;2022-11-15T12:45:23;8.18;;;1.80;;
60492;SDS011;46341;51.290;-2.474;2022-11-15T12:47:50;7.18;;;1.23;;
60492;SDS011;46341;51.290;-2.474;2022-11-15T12:50:18;6.57;;;1.92;;
60492;SDS011;46341;51.290;-2.474;2022-11-15T12:58:53;8.50;;;1.33;;
60492;SDS011;46341;51.290;-2.474;2022-11-15T13:11:56;8.15;;;1.85;;
60492;SDS011;46341;51.290;-2.474;2022-11-15T13:14:39;5.88;;;2.00;;
60492;SDS011;46341;51.290;-2.474;2022-11-15T13:20:01;3.00;;;1.00;;
60492;SDS011;46341;51.290;-2.474;2022-11-15T13:22:28;3.40;;;0.95;;
60492;SDS011;46341;51.290;-2.474;2022-11-15T13:27:51;3.95;;;1.15;;
60492;SDS011;46341;51.290;-2.474;2022-11-15T13:30:24;10.90;;;1.67;;
60492;SDS011;46341;51.290;-2.474;2022-11-15T13:32:51;4.93;;;1.60;;
60492;SDS011;46341;51.290;-2.474;2022-11-15T13:35:19;5.30;;;1.37;;
60492;SDS011;46341;51.290;-2.474;2022-11-15T13:37:46;8.73;;;1.88;;
60492;SDS011;46341;51.290;-2.474;2022-11-15T13:40:18;5.70;;;1.00;;
60492;SDS011;46341;51.290;-2.474;2022-11-15T13:42:46;3.08;;;1.00;;
60492;SDS011;46341;51.290;-2.474;2022-11-15T13:45:16;7.32;;;1.48;;
60492;SDS011;46341;51.290;-2.474;2022-11-15T13:47:43;5.82;;;1.45;;
60492;SDS011;46341;51.290;-2.474;2022-11-15T13:50:10;6.93;;;1.10;;
60492;SDS011;46341;51.290;-2.474;2022-11-15T13:52:38;3.00;;;0.50;;
60492;SDS011;46341;51.290;-2.474;2022-11-15T13:55:13;4.88;;;0.70;;
60492;SDS011;46341;51.290;-2.474;2022-11-15T14:00:23;2.33;;;0.50;;
60492;SDS011;46341;51.290;-2.474;2022-11-15T14:02:50;2.67;;;0.52;;
60492;SDS011;46341;51.290;-2.474;2022-11-15T14:05:18;4.40;;;0.65;;
60492;SDS011;46341;51.290;-2.474;2022-11-15T14:07:55;3.15;;;0.50;;
60492;SDS011;46341;51.290;-2.474;2022-11-15T14:12:51;3.15;;;0.57;;
60492;SDS011;46341;51.290;-2.474;2022-11-15T14:15:25;3.35;;;0.63;;
60492;SDS011;46341;51.290;-2.474;2022-11-15T14:17:52;2.53;;;0.45;;
60492;SDS011;46341;51.290;-2.474;2022-11-15T14:20:19;2.95;;;0.60;;
60492;SDS011;46341;51.290;-2.474;2022-11-15T14:22:52;2.90;;;0.60;;
60492;SDS011;46341;51.290;-2.474;2022-11-15T14:25:20;2.67;;;0.60;;
60492;SDS011;46341;51.290;-2.474;2022-11-15T14:30:33;2.45;;;0.50;;
60492;SDS011;46341;51.290;-2.474;2022-11-15T14:32:59;3.38;;;0.80;;
60492;SDS011;46341;51.290;-2.474;2022-11-15T14:35:26;2.97;;;0.80;;
60492;SDS011;46341;51.290;-2.474;2022-11-15T14:37:52;3.93;;;0.60;;
60492;SDS011;46341;51.290;-2.474;2022-11-15T14:40:19;1.77;;;0.50;;
60492;SDS011;46341;51.290;-2.474;2022-11-15T14:42:47;2.35;;;0.40;;
60492;SDS011;46341;51.290;-2.474;2022-11-15T14:45:15;1.65;;;0.40;;
60492;SDS011;46341;51.290;-2.474;2022-11-15T14:47:41;2.17;;;0.50;;
60492;SDS011;46341;51.290;-2.474;2022-11-15T14:50:15;3.30;;;0.70;;
60492;SDS011;46341;51.290;-2.474;2022-11-15T14:52:42;2.33;;;0.60;;
60492;SDS011;46341;51.290;-2.474;2022-11-15T14:55:14;4.25;;;0.73;;
60492;SDS011;46341;51.290;-2.474;2022-11-15T14:57:41;2.88;;;0.40;;
60492;SDS011;46341;51.290;-2.474;2022-11-15T15:00:08;5.13;;;0.70;;
60492;SDS011;46341;51.290;-2.474;2022-11-15T15:02:36;2.33;;;0.45;;
60492;SDS011;46341;51.290;-2.474;2022-11-15T15:05:09;3.05;;;0.38;;
60492;SDS011;46341;51.290;-2.474;2022-11-15T15:07:38;5.05;;;0.77;;
60492;SDS011;46341;51.290;-2.474;2022-11-15T15:10:05;2.20;;;0.70;;
60492;SDS011;46341;51.290;-2.474;2022-11-15T15:12:51;4.07;;;0.77;;
60492;SDS011;46341;51.290;-2.474;2022-11-15T15:15:20;5.25;;;0.52;;
60492;SDS011;46341;51.290;-2.474;2022-11-15T15:17:47;4.50;;;0.80;;
60492;SDS011;46341;51.290;-2.474;2022-11-15T15:20:14;3.80;;;0.73;;
60492;SDS011;46341;51.290;-2.474;2022-11-15T15:22:40;4.13;;;0.90;;
60492;SDS011;46341;51.290;-2.474;2022-11-15T15:25:15;4.75;;;0.95;;
60492;SDS011;46341;51.290;-2.474;2022-11-15T15:30:11;5.25;;;0.90;;
60492;SDS011;46341;51.290;-2.474;2022-11-15T15:32:37;3.85;;;0.90;;
60492;SDS011;46341;51.290;-2.474;2022-11-15T15:35:04;5.85;;;1.17;;
60492;SDS011;46341;51.290;-2.474;2022-11-15T15:37:30;5.68;;;1.58;;
60492;SDS011;46341;51.290;-2.474;2022-11-15T15:39:59;3.78;;;1.13;;
60492;SDS011;46341;51.290;-2.474;2022-11-15T15:42:25;4.65;;;1.17;;
60492;SDS011;46341;51.290;-2.474;2022-11-15T15:44:51;5.20;;;1.00;;
60492;SDS011;46341;51.290;-2.474;2022-11-15T15:47:19;5.40;;;0.80;;
60492;SDS011;46341;51.290;-2.474;2022-11-15T15:49:46;3.63;;;0.93;;
60492;SDS011;46341;51.290;-2.474;2022-11-15T15:52:12;4.45;;;0.80;;
60492;SDS011;46341;51.290;-2.474;2022-11-15T15:54:39;4.10;;;0.90;;
60492;SDS011;46341;51.290;-2.474;2022-11-15T15:57:06;3.63;;;0.63;;
60492;SDS011;46341;51.290;-2.474;2022-11-15T15:59:32;3.43;;;0.43;;
60492;SDS011;46341;51.290;-2.474;2022-11-15T16:01:59;5.22;;;1.10;;
60492;SDS011;46341;51.290;-2.474;2022-11-15T16:04:25;4.40;;;0.70;;
60492;SDS011;46341;51.290;-2.474;2022-11-15T16:06:52;4.57;;;1.15;;
60492;SDS011;46341;51.290;-2.474;2022-11-15T16:09:21;4.50;;;1.10;;
60492;SDS011;46341;51.290;-2.474;2022-11-15T16:12:10;5.35;;;1.00;;
60492;SDS011;46341;51.290;-2.474;2022-11-15T16:14:36;5.40;;;1.40;;
60492;SDS011;46341;51.290;-2.474;2022-11-15T16:17:03;3.53;;;0.90;;
60492;SDS011;46341;51.290;-2.474;2022-11-15T16:19:29;6.68;;;1.75;;
60492;SDS011;46341;51.290;-2.474;2022-11-15T16:21:56;5.82;;;1.63;;
60492;SDS011;46341;51.290;-2.474;2022-11-15T16:24:22;5.88;;;1.88;;
60492;SDS011;46341;51.290;-2.474;2022-11-15T16:26:49;7.22;;;1.25;;
60492;SDS011;46341;51.290;-2.474;2022-11-15T16:29:16;4.57;;;1.40;;
60492;SDS011;46341;51.290;-2.474;2022-11-15T16:31:42;6.10;;;1.60;;
60492;SDS011;46341;51.290;-2.474;2022-11-15T16:34:08;6.07;;;1.50;;
60492;SDS011;46341;51.290;-2.474;2022-11-15T16:36:35;4.43;;;1.52;;
60492;SDS011;46341;51.290;-2.474;2022-11-15T16:39:02;4.97;;;1.35;;
60492;SDS011;46341;51.290;-2.474;2022-11-15T16:41:32;4.93;;;1.38;;
60492;SDS011;46341;51.290;-2.474;2022-11-15T16:43:59;7.40;;;1.40;;
60492;SDS011;46341;51.290;-2.474;2022-11-15T16:46:26;3.85;;;1.02;;